createdAt,value
2018-12-27T00:00:29.503Z,0.00
2018-12-27T00:01:29.484Z,0.00
2018-12-27T00:02:29.484Z,0.00
2018-12-27T00:03:29.475Z,0.00
2018-12-27T00:04:29.455Z,0.00
2018-12-27T00:05:29.445Z,0.00
2018-12-27T00:06:29.427Z,0.00
2018-12-27T00:07:29.419Z,0.00
2018-12-27T00:08:29.442Z,0.00
2018-12-27T00:09:29.398Z,0.00
2018-12-27T00:10:29.387Z,0.00
2018-12-27T00:11:29.375Z,0.00
2018-12-27T00:12:29.363Z,0.00
2018-12-27T00:13:29.351Z,0.00
2018-12-27T00:14:29.363Z,0.00
2018-12-27T00:15:29.335Z,0.00
2018-12-27T00:16:29.331Z,0.00
2018-12-27T00:17:29.307Z,0.00
2018-12-27T00:18:29.299Z,0.00
2018-12-27T00:19:29.307Z,0.00
2018-12-27T00:20:29.307Z,0.00
2018-12-27T00:21:29.272Z,0.00
2018-12-27T00:22:29.251Z,0.00
2018-12-27T00:23:29.245Z,0.00
2018-12-27T00:24:29.231Z,0.00
2018-12-27T00:25:29.219Z,0.00
2018-12-27T00:26:29.236Z,0.00
2018-12-27T00:27:29.200Z,0.00
2018-12-27T00:28:29.187Z,0.00
2018-12-27T00:29:29.175Z,0.00
2018-12-27T00:30:29.163Z,0.00
2018-12-27T00:31:29.171Z,0.00
2018-12-27T00:32:29.187Z,0.00
2018-12-27T00:33:29.131Z,0.00
2018-12-27T00:34:29.118Z,0.00
2018-12-27T00:35:29.111Z,0.00
2018-12-27T00:36:29.099Z,0.00
2018-12-27T00:37:29.088Z,0.00
2018-12-27T00:38:29.102Z,0.00
2018-12-27T00:39:29.065Z,0.00
2018-12-27T00:40:29.053Z,0.00
2018-12-27T00:41:29.041Z,0.00
2018-12-27T00:42:29.033Z,0.00
2018-12-27T00:43:29.021Z,0.00
2018-12-27T00:44:29.029Z,0.00
2018-12-27T00:45:29.001Z,0.00
2018-12-27T00:46:28.992Z,0.00
2018-12-27T00:47:28.978Z,0.00
2018-12-27T00:48:28.965Z,0.00
2018-12-27T00:49:28.973Z,0.00
2018-12-27T00:50:28.950Z,0.00
2018-12-27T00:51:28.938Z,0.00
2018-12-27T00:52:28.925Z,0.00
2018-12-27T00:53:28.911Z,0.00
2018-12-27T00:54:28.901Z,0.00
2018-12-27T00:55:28.905Z,0.00
2018-12-27T00:56:28.889Z,0.00
2018-12-27T00:57:28.866Z,0.00
2018-12-27T00:58:28.854Z,0.00
2018-12-27T00:59:28.843Z,0.00
2018-12-27T01:00:28.834Z,0.00
2018-12-27T01:01:28.838Z,0.00
2018-12-27T01:02:28.819Z,0.00
2018-12-27T01:03:28.802Z,0.00
2018-12-27T01:04:28.787Z,0.00
2018-12-27T01:05:28.781Z,0.00
2018-12-27T01:06:28.768Z,0.00
2018-12-27T01:07:28.773Z,0.00
2018-12-27T01:08:28.759Z,0.00
2018-12-27T01:09:28.734Z,0.00
2018-12-27T01:10:28.722Z,0.00
2018-12-27T01:11:28.715Z,0.00
2018-12-27T01:12:28.701Z,0.00
2018-12-27T01:13:28.699Z,0.00
2018-12-27T01:14:28.697Z,0.00
2018-12-27T01:15:28.674Z,0.00
2018-12-27T01:16:28.657Z,0.00
2018-12-27T01:17:28.645Z,0.00
2018-12-27T01:18:28.633Z,0.00
2018-12-27T01:19:28.620Z,0.00
2018-12-27T01:20:28.623Z,0.00
2018-12-27T01:21:28.629Z,0.00
2018-12-27T01:22:28.591Z,0.00
2018-12-27T01:23:28.577Z,0.00
2018-12-27T01:24:28.569Z,0.00
2018-12-27T01:25:28.562Z,0.00
2018-12-27T01:26:28.545Z,0.00
2018-12-27T01:27:28.556Z,0.00
2018-12-27T01:28:28.523Z,0.00
2018-12-27T01:29:28.517Z,0.00
2018-12-27T01:30:28.505Z,0.00
2018-12-27T01:31:28.513Z,0.00
2018-12-27T01:32:28.481Z,0.00
2018-12-27T01:33:28.485Z,0.00
2018-12-27T01:34:28.456Z,0.00
2018-12-27T01:35:28.448Z,0.00
2018-12-27T01:36:28.446Z,0.00
2018-12-27T01:37:28.445Z,0.00
2018-12-27T01:38:28.413Z,0.00
2018-12-27T01:39:28.416Z,0.00
2018-12-27T01:40:28.390Z,0.00
2018-12-27T01:41:28.381Z,0.00
2018-12-27T01:42:28.421Z,0.00
2018-12-27T01:43:28.373Z,0.00
2018-12-27T01:44:28.345Z,0.00
2018-12-27T01:45:28.340Z,0.00
2018-12-27T01:46:28.337Z,0.00
2018-12-27T01:47:28.313Z,0.00
2018-12-27T01:48:28.302Z,0.00
2018-12-27T01:49:28.305Z,0.00
2018-12-27T01:50:28.281Z,0.00
2018-12-27T01:51:28.341Z,0.00
2018-12-27T01:52:28.256Z,0.00
2018-12-27T01:53:28.246Z,0.00
2018-12-27T01:54:28.236Z,0.00
2018-12-27T01:55:28.228Z,0.00
2018-12-27T01:56:28.213Z,0.00
2018-12-27T01:57:28.226Z,0.00
2018-12-27T01:58:28.206Z,0.00
2018-12-27T01:59:28.186Z,0.00
2018-12-27T02:00:28.169Z,0.00
2018-12-27T02:01:28.161Z,0.00
2018-12-27T02:02:28.149Z,0.00
2018-12-27T02:03:28.169Z,0.00
2018-12-27T02:04:28.125Z,0.00
2018-12-27T02:05:28.117Z,0.00
2018-12-27T02:06:28.108Z,0.00
2018-12-27T02:07:28.093Z,0.00
2018-12-27T02:08:28.079Z,0.00
2018-12-27T02:09:28.103Z,0.00
2018-12-27T02:10:28.061Z,0.00
2018-12-27T02:11:28.048Z,0.00
2018-12-27T02:12:28.041Z,0.00
2018-12-27T02:13:28.024Z,0.00
2018-12-27T02:14:28.017Z,0.00
2018-12-27T02:15:28.033Z,0.00
2018-12-27T02:16:28.017Z,0.00
2018-12-27T02:17:27.984Z,0.00
2018-12-27T02:18:27.972Z,0.00
2018-12-27T02:19:27.960Z,0.00
2018-12-27T02:20:27.949Z,0.00
2018-12-27T02:21:27.973Z,0.00
2018-12-27T02:22:27.929Z,0.00
2018-12-27T02:23:27.921Z,0.00
2018-12-27T02:24:27.906Z,0.00
2018-12-27T02:25:27.892Z,0.00
2018-12-27T02:26:27.882Z,0.00
2018-12-27T02:27:27.898Z,0.00
2018-12-27T02:28:27.860Z,0.00
2018-12-27T02:29:27.848Z,0.00
2018-12-27T02:30:27.839Z,0.00
2018-12-27T02:31:27.828Z,0.00
2018-12-27T02:32:27.847Z,0.00
2018-12-27T02:33:35.048Z,0.00
2018-12-27T02:34:28.798Z,0.00
2018-12-27T02:35:27.785Z,0.00
2018-12-27T02:36:27.772Z,0.00
2018-12-27T02:37:27.772Z,0.00
2018-12-27T02:38:27.754Z,0.00
2018-12-27T02:39:27.768Z,0.00
2018-12-27T02:40:27.746Z,0.00
2018-12-27T02:41:27.718Z,0.00
2018-12-27T02:42:27.707Z,0.00
2018-12-27T02:43:27.694Z,0.00
2018-12-27T02:44:27.682Z,0.00
2018-12-27T02:45:27.684Z,0.00
2018-12-27T02:46:27.682Z,0.00
2018-12-27T02:47:27.656Z,0.00
2018-12-27T02:48:27.640Z,0.00
2018-12-27T02:49:27.629Z,0.00
2018-12-27T02:50:27.619Z,0.00
2018-12-27T02:51:27.657Z,0.00
2018-12-27T02:52:27.608Z,0.00
2018-12-27T02:53:27.584Z,0.00
2018-12-27T02:54:27.576Z,0.00
2018-12-27T02:55:27.563Z,0.00
2018-12-27T02:56:27.552Z,0.00
2018-12-27T02:57:27.566Z,0.00
2018-12-27T02:58:27.531Z,0.00
2018-12-27T02:59:27.516Z,0.00
2018-12-27T03:00:27.509Z,0.00
2018-12-27T03:01:27.497Z,0.00
2018-12-27T03:02:27.485Z,0.00
2018-12-27T03:03:27.517Z,0.00
2018-12-27T03:04:27.465Z,0.00
2018-12-27T03:05:27.454Z,0.00
2018-12-27T03:06:27.441Z,0.00
2018-12-27T03:07:27.429Z,0.00
2018-12-27T03:08:27.426Z,0.00
2018-12-27T03:09:27.439Z,0.00
2018-12-27T03:10:27.399Z,0.00
2018-12-27T03:11:27.384Z,0.00
2018-12-27T03:12:27.377Z,0.00
2018-12-27T03:13:27.365Z,0.00
2018-12-27T03:14:27.358Z,0.00
2018-12-27T03:15:27.364Z,0.00
2018-12-27T03:16:27.337Z,0.00
2018-12-27T03:17:27.321Z,0.00
2018-12-27T03:18:27.312Z,0.00
2018-12-27T03:19:27.305Z,0.00
2018-12-27T03:20:27.285Z,0.00
2018-12-27T03:21:27.286Z,0.00
2018-12-27T03:22:27.277Z,0.00
2018-12-27T03:23:27.254Z,0.00
2018-12-27T03:24:27.241Z,0.00
2018-12-27T03:25:27.237Z,0.00
2018-12-27T03:26:27.240Z,0.00
2018-12-27T03:27:27.210Z,0.00
2018-12-27T03:28:27.218Z,0.00
2018-12-27T03:29:27.197Z,0.00
2018-12-27T03:30:27.184Z,0.00
2018-12-27T03:31:27.166Z,0.00
2018-12-27T03:32:27.174Z,0.00
2018-12-27T03:33:27.145Z,0.00
2018-12-27T03:34:27.135Z,0.00
2018-12-27T03:35:27.129Z,0.00
2018-12-27T03:36:27.113Z,0.00
2018-12-27T03:37:27.098Z,0.00
2018-12-27T03:38:27.105Z,0.00
2018-12-27T03:39:27.076Z,0.00
2018-12-27T03:40:27.069Z,0.00
2018-12-27T03:41:27.069Z,0.00
2018-12-27T03:42:27.046Z,0.00
2018-12-27T03:43:27.033Z,0.00
2018-12-27T03:44:27.038Z,0.00
2018-12-27T03:45:27.012Z,0.00
2018-12-27T03:46:26.999Z,0.00
2018-12-27T03:47:27.000Z,0.00
2018-12-27T03:48:26.977Z,0.00
2018-12-27T03:49:26.964Z,0.00
2018-12-27T03:50:26.976Z,0.00
2018-12-27T03:51:26.945Z,0.00
2018-12-27T03:52:26.933Z,0.00
2018-12-27T03:53:26.938Z,0.00
2018-12-27T03:54:26.917Z,0.00
2018-12-27T03:55:26.920Z,0.00
2018-12-27T03:56:26.895Z,0.00
2018-12-27T03:57:26.877Z,0.00
2018-12-27T03:58:26.869Z,0.00
2018-12-27T03:59:26.869Z,0.00
2018-12-27T04:00:26.856Z,0.00
2018-12-27T04:01:26.860Z,0.00
2018-12-27T04:02:26.821Z,0.00
2018-12-27T04:03:26.814Z,0.00
2018-12-27T04:04:26.801Z,0.00
2018-12-27T04:05:26.801Z,0.00
2018-12-27T04:06:26.779Z,0.00
2018-12-27T04:07:26.777Z,0.00
2018-12-27T04:08:26.757Z,0.00
2018-12-27T04:09:26.751Z,0.00
2018-12-27T04:10:26.745Z,0.00
2018-12-27T04:11:26.741Z,0.00
2018-12-27T04:12:26.730Z,0.00
2018-12-27T04:13:26.701Z,0.00
2018-12-27T04:14:26.689Z,0.00
2018-12-27T04:15:26.677Z,0.00
2018-12-27T04:16:26.669Z,0.00
2018-12-27T04:17:26.665Z,0.00
2018-12-27T04:18:26.661Z,0.00
2018-12-27T04:19:26.635Z,0.00
2018-12-27T04:20:26.621Z,0.00
2018-12-27T04:21:26.614Z,0.00
2018-12-27T04:22:26.601Z,0.00
2018-12-27T04:23:26.605Z,0.00
2018-12-27T04:24:26.598Z,0.00
2018-12-27T04:25:26.568Z,0.00
2018-12-27T04:26:26.553Z,0.00
2018-12-27T04:27:26.545Z,0.00
2018-12-27T04:28:26.539Z,0.00
2018-12-27T04:29:26.557Z,0.00
2018-12-27T04:30:26.551Z,0.00
2018-12-27T04:31:26.497Z,0.00
2018-12-27T04:32:26.491Z,0.00
2018-12-27T04:33:26.520Z,0.00
2018-12-27T04:34:26.466Z,0.00
2018-12-27T04:35:26.478Z,0.00
2018-12-27T04:36:26.451Z,0.00
2018-12-27T04:37:26.433Z,0.00
2018-12-27T04:38:26.422Z,0.00
2018-12-27T04:39:26.411Z,0.00
2018-12-27T04:40:26.397Z,0.00
2018-12-27T04:41:26.401Z,0.00
2018-12-27T04:42:26.393Z,0.00
2018-12-27T04:43:26.369Z,0.00
2018-12-27T04:44:26.358Z,0.00
2018-12-27T04:45:26.341Z,0.00
2018-12-27T04:46:26.334Z,0.00
2018-12-27T04:47:26.340Z,0.00
2018-12-27T04:48:26.321Z,0.00
2018-12-27T04:49:26.301Z,0.00
2018-12-27T04:50:26.286Z,0.00
2018-12-27T04:51:26.281Z,0.00
2018-12-27T04:52:26.265Z,0.00
2018-12-27T04:53:26.273Z,0.00
2018-12-27T04:54:26.262Z,0.00
2018-12-27T04:55:26.229Z,0.00
2018-12-27T04:56:26.221Z,0.00
2018-12-27T04:57:26.226Z,0.00
2018-12-27T04:58:26.217Z,0.00
2018-12-27T04:59:26.217Z,0.00
2018-12-27T05:00:26.187Z,0.00
2018-12-27T05:01:26.168Z,0.00
2018-12-27T05:02:26.154Z,0.00
2018-12-27T05:03:26.148Z,0.00
2018-12-27T05:04:26.129Z,0.00
2018-12-27T05:05:26.154Z,0.00
2018-12-27T05:06:26.109Z,0.00
2018-12-27T05:07:26.096Z,0.00
2018-12-27T05:08:26.084Z,0.00
2018-12-27T05:09:26.148Z,0.00
2018-12-27T05:10:26.064Z,0.00
2018-12-27T05:11:26.073Z,0.00
2018-12-27T05:12:26.042Z,0.00
2018-12-27T05:13:26.028Z,0.00
2018-12-27T05:14:26.021Z,0.00
2018-12-27T05:15:26.009Z,0.00
2018-12-27T05:16:26.012Z,0.00
2018-12-27T05:17:25.996Z,0.00
2018-12-27T05:18:25.974Z,0.00
2018-12-27T05:19:25.965Z,0.00
2018-12-27T05:20:25.962Z,0.00
2018-12-27T05:21:25.941Z,0.00
2018-12-27T05:22:25.941Z,0.00
2018-12-27T05:23:25.936Z,0.00
2018-12-27T05:24:25.937Z,0.00
2018-12-27T05:25:25.908Z,0.00
2018-12-27T05:26:25.884Z,0.00
2018-12-27T05:27:25.873Z,0.00
2018-12-27T05:28:25.865Z,0.00
2018-12-27T05:29:25.853Z,0.00
2018-12-27T05:30:25.856Z,0.00
2018-12-27T05:31:25.848Z,0.00
2018-12-27T05:32:25.848Z,0.00
2018-12-27T05:33:25.805Z,0.00
2018-12-27T05:34:26.403Z,0.00
2018-12-27T05:35:25.784Z,0.00
2018-12-27T05:36:25.791Z,0.00
2018-12-27T05:37:25.779Z,0.00
2018-12-27T05:38:25.748Z,0.00
2018-12-27T05:39:25.744Z,0.00
2018-12-27T05:40:25.728Z,0.00
2018-12-27T05:41:25.732Z,0.00
2018-12-27T05:42:25.711Z,0.00
2018-12-27T05:43:25.700Z,0.00
2018-12-27T05:44:25.687Z,0.00
2018-12-27T05:45:25.678Z,0.00
2018-12-27T05:46:25.660Z,0.00
2018-12-27T05:47:25.664Z,0.00
2018-12-27T05:48:25.636Z,0.00
2018-12-27T05:49:25.644Z,0.00
2018-12-27T05:50:25.616Z,0.00
2018-12-27T05:51:25.604Z,0.00
2018-12-27T05:52:25.593Z,0.00
2018-12-27T05:53:25.601Z,0.00
2018-12-27T05:54:25.578Z,0.00
2018-12-27T05:55:25.572Z,0.00
2018-12-27T05:56:25.548Z,0.00
2018-12-27T05:57:25.544Z,0.00
2018-12-27T05:58:25.528Z,0.00
2018-12-27T05:59:25.532Z,0.00
2018-12-27T06:00:25.504Z,0.00
2018-12-27T06:01:25.509Z,0.00
2018-12-27T06:02:25.481Z,0.00
2018-12-27T06:03:25.472Z,0.00
2018-12-27T06:04:25.476Z,0.00
2018-12-27T06:05:25.448Z,0.00
2018-12-27T06:06:25.436Z,0.00
2018-12-27T06:07:25.436Z,0.00
2018-12-27T06:08:25.420Z,0.00
2018-12-27T06:09:25.403Z,0.00
2018-12-27T06:10:25.408Z,0.00
2018-12-27T06:11:25.384Z,0.00
2018-12-27T06:12:25.372Z,0.00
2018-12-27T06:13:25.369Z,0.00
2018-12-27T06:14:25.347Z,0.00
2018-12-27T06:15:26.275Z,0.00
2018-12-27T06:16:25.327Z,0.00
2018-12-27T06:17:25.316Z,0.00
2018-12-27T06:18:25.304Z,0.00
2018-12-27T06:19:25.311Z,0.00
2018-12-27T06:20:25.279Z,0.00
2018-12-27T06:21:25.299Z,0.00
2018-12-27T06:22:25.260Z,0.00
2018-12-27T06:23:25.248Z,0.00
2018-12-27T06:24:25.236Z,0.00
2018-12-27T06:25:25.252Z,0.00
2018-12-27T06:26:25.222Z,0.00
2018-12-27T06:27:25.219Z,0.00
2018-12-27T06:28:25.274Z,0.00
2018-12-27T06:29:25.179Z,0.00
2018-12-27T06:30:25.176Z,0.00
2018-12-27T06:31:25.172Z,0.00
2018-12-27T06:32:25.152Z,0.00
2018-12-27T06:33:25.151Z,0.00
2018-12-27T06:34:25.124Z,0.00
2018-12-27T06:35:25.115Z,0.00
2018-12-27T06:36:25.105Z,0.00
2018-12-27T06:37:25.095Z,0.00
2018-12-27T06:38:25.083Z,0.00
2018-12-27T06:39:25.079Z,0.00
2018-12-27T06:40:25.059Z,0.00
2018-12-27T06:41:25.059Z,0.00
2018-12-27T06:42:25.036Z,0.00
2018-12-27T06:43:25.036Z,0.00
2018-12-27T06:44:25.023Z,0.00
2018-12-27T06:45:25.005Z,0.00
2018-12-27T06:46:25.020Z,0.00
2018-12-27T06:47:24.979Z,0.00
2018-12-27T06:48:24.967Z,0.00
2018-12-27T06:49:24.971Z,0.00
2018-12-27T06:50:24.948Z,0.00
2018-12-27T06:51:24.935Z,0.00
2018-12-27T06:52:24.939Z,0.00
2018-12-27T06:53:24.912Z,0.00
2018-12-27T06:54:24.903Z,0.00
2018-12-27T06:55:24.900Z,0.00
2018-12-27T06:56:24.883Z,0.00
2018-12-27T06:57:24.871Z,0.00
2018-12-27T06:58:24.867Z,0.00
2018-12-27T06:59:24.867Z,0.00
2018-12-27T07:00:24.835Z,0.00
2018-12-27T07:01:24.827Z,0.00
2018-12-27T07:02:24.820Z,0.00
2018-12-27T07:03:24.819Z,0.00
2018-12-27T07:04:24.792Z,4.00
2018-12-27T07:05:24.780Z,4.00
2018-12-27T07:06:24.767Z,0.00
2018-12-27T07:07:24.759Z,4.00
2018-12-27T07:08:24.751Z,4.00
2018-12-27T07:09:24.751Z,0.00
2018-12-27T07:10:24.727Z,4.00
2018-12-27T07:11:24.712Z,8.00
2018-12-27T07:12:24.704Z,4.00
2018-12-27T07:13:24.693Z,4.00
2018-12-27T07:14:24.687Z,8.00
2018-12-27T07:15:24.680Z,8.00
2018-12-27T07:16:24.655Z,8.00
2018-12-27T07:17:24.651Z,8.00
2018-12-27T07:18:24.635Z,12.00
2018-12-27T07:19:24.623Z,12.00
2018-12-27T07:20:24.644Z,16.00
2018-12-27T07:21:24.604Z,16.00
2018-12-27T07:22:24.591Z,16.00
2018-12-27T07:23:24.579Z,20.00
2018-12-27T07:24:24.568Z,24.00
2018-12-27T07:25:24.557Z,24.00
2018-12-27T07:26:24.575Z,32.00
2018-12-27T07:27:24.535Z,32.00
2018-12-27T07:28:24.531Z,36.00
2018-12-27T07:29:24.513Z,44.00
2018-12-27T07:30:24.504Z,44.00
2018-12-27T07:31:24.491Z,48.00
2018-12-27T07:32:24.512Z,52.00
2018-12-27T07:33:24.467Z,56.00
2018-12-27T07:34:24.456Z,60.00
2018-12-27T07:35:24.451Z,68.00
2018-12-27T07:36:24.439Z,72.00
2018-12-27T07:37:24.427Z,76.00
2018-12-27T07:38:24.440Z,84.00
2018-12-27T07:39:24.404Z,88.00
2018-12-27T07:40:24.396Z,96.00
2018-12-27T07:41:24.379Z,104.00
2018-12-27T07:42:24.367Z,112.00
2018-12-27T07:43:24.375Z,120.00
2018-12-27T07:44:24.363Z,128.00
2018-12-27T07:45:24.335Z,140.00
2018-12-27T07:46:24.323Z,152.00
2018-12-27T07:47:24.365Z,160.00
2018-12-27T07:48:24.300Z,172.00
2018-12-27T07:49:24.307Z,184.00
2018-12-27T07:50:24.279Z,196.00
2018-12-27T07:51:24.275Z,208.00
2018-12-27T07:52:24.260Z,220.00
2018-12-27T07:53:24.252Z,236.00
2018-12-27T07:54:24.247Z,244.00
2018-12-27T07:55:24.223Z,256.00
2018-12-27T07:56:24.219Z,272.00
2018-12-27T07:57:24.212Z,280.00
2018-12-27T07:58:24.187Z,292.00
2018-12-27T07:59:24.180Z,304.00
2018-12-27T08:00:24.197Z,312.00
2018-12-27T08:01:24.159Z,320.00
2018-12-27T08:02:24.142Z,328.00
2018-12-27T08:03:24.157Z,332.00
2018-12-27T08:04:25.658Z,344.00
2018-12-27T08:05:24.114Z,352.00
2018-12-27T08:06:24.098Z,360.00
2018-12-27T08:07:24.087Z,368.00
2018-12-27T08:08:24.172Z,376.00
2018-12-27T08:09:24.079Z,384.00
2018-12-27T08:10:24.054Z,384.00
2018-12-27T08:11:24.055Z,396.00
2018-12-27T08:12:24.031Z,408.00
2018-12-27T08:13:24.022Z,420.00
2018-12-27T08:14:24.041Z,428.00
2018-12-27T08:15:24.066Z,444.00
2018-12-27T08:16:23.991Z,456.00
2018-12-27T08:17:23.982Z,468.00
2018-12-27T08:18:24.093Z,480.00
2018-12-27T08:19:23.966Z,492.00
2018-12-27T08:20:23.970Z,500.00
2018-12-27T08:21:23.969Z,520.00
2018-12-27T08:22:23.931Z,532.00
2018-12-27T08:23:23.912Z,548.00
2018-12-27T08:24:23.899Z,560.00
2018-12-27T08:25:23.928Z,568.00
2018-12-27T08:26:23.897Z,572.00
2018-12-27T08:27:23.882Z,576.00
2018-12-27T08:28:23.858Z,584.00
2018-12-27T08:29:23.939Z,596.00
2018-12-27T08:30:23.832Z,604.00
2018-12-27T08:31:23.821Z,612.00
2018-12-27T08:32:24.126Z,624.00
2018-12-27T08:33:23.799Z,636.00
2018-12-27T08:34:23.794Z,648.00
2018-12-27T08:35:23.794Z,660.00
2018-12-27T08:36:23.766Z,668.00
2018-12-27T08:37:23.794Z,680.00
2018-12-27T08:38:23.914Z,692.00
2018-12-27T08:39:23.777Z,700.00
2018-12-27T08:40:23.747Z,712.00
2018-12-27T08:41:23.731Z,724.00
2018-12-27T08:42:23.835Z,732.00
2018-12-27T08:43:23.734Z,740.00
2018-12-27T08:44:23.727Z,748.00
2018-12-27T08:45:23.682Z,756.00
2018-12-27T08:46:23.669Z,768.00
2018-12-27T08:47:23.664Z,772.00
2018-12-27T08:48:23.735Z,784.00
2018-12-27T08:49:23.628Z,792.00
2018-12-27T08:50:23.616Z,800.00
2018-12-27T08:51:23.608Z,808.00
2018-12-27T08:52:23.662Z,816.00
2018-12-27T08:53:23.688Z,828.00
2018-12-27T08:54:23.573Z,832.00
2018-12-27T08:55:23.576Z,840.00
2018-12-27T08:56:23.557Z,844.00
2018-12-27T08:57:23.544Z,848.00
2018-12-27T08:58:23.554Z,856.00
2018-12-27T08:59:23.514Z,864.00
2018-12-27T09:00:23.504Z,868.00
2018-12-27T09:01:23.512Z,880.00
2018-12-27T09:02:23.545Z,884.00
2018-12-27T09:03:23.466Z,892.00
2018-12-27T09:04:23.464Z,904.00
2018-12-27T09:05:23.452Z,912.00
2018-12-27T09:06:23.444Z,920.00
2018-12-27T09:07:23.462Z,924.00
2018-12-27T09:08:23.495Z,936.00
2018-12-27T09:09:23.404Z,944.00
2018-12-27T09:10:23.412Z,948.00
2018-12-27T09:11:23.376Z,956.00
2018-12-27T09:12:23.364Z,968.00
2018-12-27T09:13:23.371Z,976.00
2018-12-27T09:14:23.349Z,988.00
2018-12-27T09:15:23.336Z,996.00
2018-12-27T09:16:23.324Z,1004.00
2018-12-27T09:17:23.312Z,1008.00
2018-12-27T09:18:23.300Z,1016.00
2018-12-27T09:19:23.315Z,1028.00
2018-12-27T09:20:23.278Z,1032.00
2018-12-27T09:21:23.265Z,1044.00
2018-12-27T09:22:23.262Z,1052.00
2018-12-27T09:23:23.245Z,1056.00
2018-12-27T09:24:23.260Z,1072.00
2018-12-27T09:25:23.242Z,1072.00
2018-12-27T09:26:23.212Z,1072.00
2018-12-27T09:27:23.220Z,1072.00
2018-12-27T09:28:23.191Z,1072.00
2018-12-27T09:29:23.180Z,1080.00
2018-12-27T09:30:23.168Z,1092.00
2018-12-27T09:31:23.175Z,1104.00
2018-12-27T09:32:23.147Z,1124.00
2018-12-27T09:33:23.152Z,1136.00
2018-12-27T09:34:23.123Z,1160.00
2018-12-27T09:35:26.537Z,1184.00
2018-12-27T09:36:23.107Z,1220.00
2018-12-27T09:37:30.148Z,1248.00
2018-12-27T09:38:23.095Z,1268.00
2018-12-27T09:39:23.070Z,1284.00
2018-12-27T09:40:23.080Z,1268.00
2018-12-27T09:41:23.092Z,1296.00
2018-12-27T09:42:23.154Z,1312.00
2018-12-27T09:43:23.030Z,1344.00
2018-12-27T09:44:23.017Z,1360.00
2018-12-27T09:45:23.086Z,1372.00
2018-12-27T09:46:23.009Z,1380.00
2018-12-27T09:47:23.001Z,1388.00
2018-12-27T09:48:22.973Z,1392.00
2018-12-27T09:49:22.961Z,1396.00
2018-12-27T09:50:22.951Z,1400.00
2018-12-27T09:51:23.029Z,1416.00
2018-12-27T09:52:22.947Z,1432.00
2018-12-27T09:53:22.925Z,1436.00
2018-12-27T09:54:22.912Z,1440.00
2018-12-27T09:55:22.903Z,1460.00
2018-12-27T09:56:22.884Z,1464.00
2018-12-27T09:57:22.888Z,1464.00
2018-12-27T09:58:22.875Z,1464.00
2018-12-27T09:59:22.855Z,1476.00
2018-12-27T10:00:22.842Z,1476.00
2018-12-27T10:01:22.835Z,1472.00
2018-12-27T10:02:22.828Z,1480.00
2018-12-27T10:03:22.865Z,1488.00
2018-12-27T10:04:22.831Z,1488.00
2018-12-27T10:05:22.784Z,1484.00
2018-12-27T10:06:22.777Z,1464.00
2018-12-27T10:07:22.761Z,1496.00
2018-12-27T10:08:22.758Z,1504.00
2018-12-27T10:09:22.761Z,1504.00
2018-12-27T10:10:22.725Z,1516.00
2018-12-27T10:11:22.736Z,1548.00
2018-12-27T10:12:22.713Z,1576.00
2018-12-27T10:13:22.717Z,1616.00
2018-12-27T10:14:22.688Z,1648.00
2018-12-27T10:15:22.700Z,1660.00
2018-12-27T10:16:22.664Z,1652.00
2018-12-27T10:17:22.652Z,1656.00
2018-12-27T10:18:22.656Z,1664.00
2018-12-27T10:19:22.629Z,1668.00
2018-12-27T10:20:22.620Z,1656.00
2018-12-27T10:21:22.633Z,1668.00
2018-12-27T10:22:22.597Z,1656.00
2018-12-27T10:23:22.589Z,1668.00
2018-12-27T10:24:22.572Z,1700.00
2018-12-27T10:25:22.584Z,1704.00
2018-12-27T10:26:22.550Z,1708.00
2018-12-27T10:27:22.553Z,1688.00
2018-12-27T10:28:22.529Z,1684.00
2018-12-27T10:29:22.517Z,1692.00
2018-12-27T10:30:22.509Z,1700.00
2018-12-27T10:31:22.513Z,1760.00
2018-12-27T10:32:22.489Z,1824.00
2018-12-27T10:33:22.489Z,1884.00
2018-12-27T10:34:22.486Z,1900.00
2018-12-27T10:35:22.457Z,1916.00
2018-12-27T10:36:22.441Z,1920.00
2018-12-27T10:37:22.434Z,1952.00
2018-12-27T10:38:22.422Z,2020.00
2018-12-27T10:39:22.405Z,2044.00
2018-12-27T10:40:22.437Z,2100.00
2018-12-27T10:41:22.402Z,2092.00
2018-12-27T10:42:22.387Z,2148.00
2018-12-27T10:43:22.367Z,2184.00
2018-12-27T10:44:22.358Z,2184.00
2018-12-27T10:45:22.346Z,2128.00
2018-12-27T10:46:22.341Z,2040.00
2018-12-27T10:47:22.350Z,2020.00
2018-12-27T10:48:22.306Z,2012.00
2018-12-27T10:49:22.308Z,2052.00
2018-12-27T10:50:22.342Z,2072.00
2018-12-27T10:51:22.294Z,2108.00
2018-12-27T10:52:22.269Z,2100.00
2018-12-27T10:53:22.259Z,2072.00
2018-12-27T10:54:22.244Z,2068.00
2018-12-27T10:55:22.231Z,2072.00
2018-12-27T10:56:22.219Z,2048.00
2018-12-27T10:57:22.227Z,2068.00
2018-12-27T10:58:22.199Z,2040.00
2018-12-27T10:59:22.196Z,1976.00
2018-12-27T11:00:22.191Z,1928.00
2018-12-27T11:01:22.187Z,1984.00
2018-12-27T11:02:22.172Z,1956.00
2018-12-27T11:03:22.160Z,1944.00
2018-12-27T11:04:22.135Z,1892.00
2018-12-27T11:05:22.119Z,1888.00
2018-12-27T11:06:22.120Z,1864.00
2018-12-27T11:07:22.099Z,1884.00
2018-12-27T11:08:22.104Z,1872.00
2018-12-27T11:09:22.083Z,1864.00
2018-12-27T11:10:22.291Z,1856.00
2018-12-27T11:11:22.060Z,1852.00
2018-12-27T11:12:22.043Z,1828.00
2018-12-27T11:13:22.042Z,1812.00
2018-12-27T11:14:22.047Z,1792.00
2018-12-27T11:15:22.011Z,1784.00
2018-12-27T11:16:22.004Z,1772.00
2018-12-27T11:17:21.987Z,1768.00
2018-12-27T11:18:21.979Z,1772.00
2018-12-27T11:19:21.967Z,1780.00
2018-12-27T11:20:21.967Z,1800.00
2018-12-27T11:21:21.947Z,1804.00
2018-12-27T11:22:21.939Z,1792.00
2018-12-27T11:23:21.919Z,1804.00
2018-12-27T11:24:21.912Z,1800.00
2018-12-27T11:25:21.899Z,1780.00
2018-12-27T11:26:21.904Z,1764.00
2018-12-27T11:27:21.875Z,1768.00
2018-12-27T11:28:21.867Z,1772.00
2018-12-27T11:29:21.855Z,1792.00
2018-12-27T11:30:21.854Z,1860.00
2018-12-27T11:31:21.852Z,1872.00
2018-12-27T11:32:21.823Z,1892.00
2018-12-27T11:33:21.809Z,1932.00
2018-12-27T11:34:21.799Z,1948.00
2018-12-27T11:35:21.791Z,1840.00
2018-12-27T11:36:21.775Z,1760.00
2018-12-27T11:37:21.787Z,1740.00
2018-12-27T11:38:21.759Z,1724.00
2018-12-27T11:39:21.743Z,1712.00
2018-12-27T11:40:21.732Z,1676.00
2018-12-27T11:41:21.723Z,1648.00
2018-12-27T11:42:21.715Z,1644.00
2018-12-27T11:43:21.721Z,1640.00
2018-12-27T11:44:21.694Z,1628.00
2018-12-27T11:45:21.675Z,1616.00
2018-12-27T11:46:21.696Z,1588.00
2018-12-27T11:47:21.671Z,1552.00
2018-12-27T11:48:21.659Z,1512.00
2018-12-27T11:49:21.631Z,1480.00
2018-12-27T11:50:21.635Z,1448.00
2018-12-27T11:51:21.611Z,1416.00
2018-12-27T11:52:21.599Z,1392.00
2018-12-27T11:53:21.583Z,1360.00
2018-12-27T11:54:21.591Z,1336.00
2018-12-27T11:55:21.576Z,1312.00
2018-12-27T11:56:21.600Z,1292.00
2018-12-27T11:57:21.552Z,1272.00
2018-12-27T11:58:21.530Z,1264.00
2018-12-27T11:59:21.521Z,1252.00
2018-12-27T12:00:21.525Z,1240.00
2018-12-27T12:01:21.498Z,1228.00
2018-12-27T12:02:21.484Z,1224.00
2018-12-27T12:03:21.550Z,1224.00
2018-12-27T12:04:21.470Z,1228.00
2018-12-27T12:05:21.457Z,1224.00
2018-12-27T12:06:21.457Z,1216.00
2018-12-27T12:07:21.434Z,1204.00
2018-12-27T12:08:21.421Z,1192.00
2018-12-27T12:09:21.424Z,1176.00
2018-12-27T12:10:21.401Z,1160.00
2018-12-27T12:11:21.422Z,1144.00
2018-12-27T12:12:21.377Z,1140.00
2018-12-27T12:13:21.362Z,1128.00
2018-12-27T12:14:21.357Z,1120.00
2018-12-27T12:15:21.343Z,1108.00
2018-12-27T12:16:21.334Z,1096.00
2018-12-27T12:17:21.332Z,1088.00
2018-12-27T12:18:21.322Z,1080.00
2018-12-27T12:19:21.296Z,1080.00
2018-12-27T12:20:21.289Z,1072.00
2018-12-27T12:21:21.275Z,1072.00
2018-12-27T12:22:21.281Z,1072.00
2018-12-27T12:23:21.263Z,1072.00
2018-12-27T12:24:21.246Z,1072.00
2018-12-27T12:25:21.238Z,1080.00
2018-12-27T12:26:21.226Z,1080.00
2018-12-27T12:27:21.218Z,1084.00
2018-12-27T12:28:29.549Z,1092.00
2018-12-27T12:29:21.181Z,1092.00
2018-12-27T12:30:21.173Z,1088.00
2018-12-27T12:31:21.161Z,1084.00
2018-12-27T12:32:21.152Z,1076.00
2018-12-27T12:33:21.143Z,1084.00
2018-12-27T12:34:21.148Z,1096.00
2018-12-27T12:35:21.123Z,1112.00
2018-12-27T12:36:21.105Z,1132.00
2018-12-27T12:37:21.115Z,1152.00
2018-12-27T12:38:21.082Z,1164.00
2018-12-27T12:39:21.082Z,1172.00
2018-12-27T12:40:21.101Z,1180.00
2018-12-27T12:41:28.597Z,1188.00
2018-12-27T12:42:32.445Z,1188.00
2018-12-27T12:43:22.036Z,1196.00
2018-12-27T12:44:21.023Z,1192.00
2018-12-27T12:45:21.032Z,1180.00
2018-12-27T12:46:20.999Z,1168.00
2018-12-27T12:47:21.003Z,1152.00
2018-12-27T12:48:20.986Z,1132.00
2018-12-27T12:49:20.983Z,1120.00